Time;durP1;ratioP1;P1;durP2;ratioP2;P2;SDS_P1;SDS_P2;PMS_P1;PMS_P2;Temp;Humidity;BMP_temperature;BMP_pressure;BME280_temperature;BME280_humidity;BME280_pressure;Samples;Min_cycle;Max_cycle;Signal;HPM_P1;HPM_P2
2021/11/04 00:07:37;;;;;;;0.20;0.10;;;11.30;99.90;;;;;;20417581;29;20220;-70
2021/11/04 00:17:41;;;;;;;0.20;0.10;;;11.30;99.90;;;;;;20417554;29;20376;-69
2021/11/04 00:27:47;;;;;;;0.20;0.07;;;11.20;99.90;;;;;;20417483;29;20256;-69
2021/11/04 00:37:51;;;;;;;0.20;0.10;;;11.10;99.90;;;;;;20416713;29;20244;-69
2021/11/04 00:47:56;;;;;;;0.20;0.10;;;11.00;99.90;;;;;;20415081;29;20201;-69
2021/11/04 00:58:00;;;;;;;0.20;0.10;;;11.00;99.90;;;;;;20412718;29;20320;-69
2021/11/04 01:08:05;;;;;;;0.20;0.10;;;10.90;99.90;;;;;;20427088;23;20257;-70
2021/11/04 01:18:09;;;;;;;0.20;0.10;;;10.80;99.90;;;;;;20416952;29;20245;-70
2021/11/04 01:28:15;;;;;;;0.20;0.10;;;11.10;99.90;;;;;;20416443;29;20548;-69
2021/11/04 01:38:19;;;;;;;0.20;0.10;;;10.90;99.90;;;;;;20399098;29;20550;-70
2021/11/04 01:48:25;;;;;;;0.20;0.10;;;10.70;99.90;;;;;;20415786;29;20198;-70
2021/11/04 01:58:28;;;;;;;0.20;0.10;;;10.60;99.90;;;;;;20397973;29;20257;-71
2021/11/04 02:08:42;;;;;;;0.20;0.10;;;10.50;99.90;;;;;;20422622;23;20366;-76
2021/11/04 02:18:48;;;;;;;0.20;0.10;;;10.60;99.90;;;;;;20429790;29;20580;-75
2021/11/04 02:28:54;;;;;;;0.20;0.10;;;10.70;99.90;;;;;;20428899;29;20197;-73
2021/11/04 02:38:58;;;;;;;0.20;0.10;;;10.60;99.90;;;;;;20366810;29;20242;-79
2021/11/04 02:49:04;;;;;;;0.20;0.10;;;10.60;99.90;;;;;;20348444;29;20656;-75
2021/11/04 02:59:07;;;;;;;0.20;0.10;;;10.60;99.90;;;;;;20348328;29;20320;-77
2021/11/04 03:09:12;;;;;;;0.20;0.10;;;10.30;99.90;;;;;;20345661;29;20237;-78
2021/11/04 03:19:19;;;;;;;5.23;1.30;;;10.30;99.90;;;;;;20346488;29;20286;-77
2021/11/04 03:29:25;;;;;;;0.20;0.10;;;10.20;99.90;;;;;;20383671;29;20199;-76
2021/11/04 03:39:30;;;;;;;0.20;0.10;;;10.20;99.90;;;;;;20423492;29;20572;-77
2021/11/04 03:49:36;;;;;;;0.20;0.10;;;10.10;99.90;;;;;;20422851;29;20229;-75
2021/11/04 03:59:40;;;;;;;0.20;0.10;;;10.00;99.90;;;;;;20433793;23;21386;-70
2021/11/04 04:09:45;;;;;;;0.20;0.10;;;9.90;99.90;;;;;;20421645;29;20284;-71
2021/11/04 04:19:48;;;;;;;0.20;0.10;;;9.90;99.90;;;;;;20419815;29;20728;-71
2021/11/04 04:29:54;;;;;;;0.20;0.10;;;9.90;99.90;;;;;;20403359;29;20208;-70
2021/11/04 04:39:57;;;;;;;0.20;0.10;;;10.00;99.90;;;;;;20418819;29;20312;-70
2021/11/04 04:50:02;;;;;;;0.20;0.10;;;9.90;99.90;;;;;;20418495;29;20202;-69
2021/11/04 05:00:14;;;;;;;0.20;0.10;;;10.10;99.90;;;;;;20419780;29;20317;-69
2021/11/04 05:10:19;;;;;;;0.20;0.10;;;10.20;99.90;;;;;;20462546;29;20189;-69
2021/11/04 05:20:23;;;;;;;0.20;0.10;;;10.20;99.90;;;;;;20433912;29;20236;-68
2021/11/04 05:30:28;;;;;;;0.20;0.10;;;10.40;99.90;;;;;;20418009;29;20280;-69
2021/11/04 05:40:34;;;;;;;0.20;0.20;;;10.50;99.90;;;;;;20416703;29;20280;-71
2021/11/04 05:50:39;;;;;;;0.20;0.10;;;10.30;99.90;;;;;;20411610;29;20233;-70
2021/11/04 06:00:43;;;;;;;0.20;0.10;;;10.20;99.90;;;;;;20413464;29;20233;-70
2021/11/04 06:10:48;;;;;;;0.20;0.10;;;10.20;99.90;;;;;;20430125;29;20201;-69
2021/11/04 06:20:51;;;;;;;0.20;0.10;;;10.10;99.90;;;;;;20429015;29;20589;-70
2021/11/04 06:30:56;;;;;;;0.20;0.10;;;10.10;99.90;;;;;;20427977;29;20201;-69
2021/11/04 06:41:00;;;;;;;0.20;0.10;;;10.00;99.90;;;;;;20345609;29;20656;-69
2021/11/04 06:51:07;;;;;;;0.20;0.10;;;9.90;99.90;;;;;;20345720;29;20212;-71
2021/11/04 07:01:15;;;;;;;0.20;0.10;;;9.90;99.90;;;;;;20328496;29;20237;-70
2021/11/04 07:11:21;;;;;;;0.20;0.10;;;9.90;99.90;;;;;;20325017;29;20202;-71
2021/11/04 07:21:35;;;;;;;0.20;0.10;;;9.90;99.90;;;;;;20345024;29;20226;-70
2021/11/04 07:31:42;;;;;;;0.20;0.10;;;9.90;99.90;;;;;;20418808;29;20216;-69
2021/11/04 07:41:46;;;;;;;0.20;0.10;;;10.00;99.90;;;;;;20405116;29;20319;-69
2021/11/04 07:51:56;;;;;;;0.20;0.10;;;10.20;99.90;;;;;;20403317;29;20694;-70
2021/11/04 08:02:01;;;;;;;0.20;0.10;;;10.40;99.90;;;;;;20420391;29;20328;-71
2021/11/04 08:12:10;;;;;;;0.20;0.10;;;10.90;99.90;;;;;;20418810;29;20201;-71
2021/11/04 08:22:16;;;;;;;0.20;0.10;;;10.90;99.90;;;;;;20418190;29;20229;-70
2021/11/04 08:32:21;;;;;;;0.20;0.10;;;11.20;99.90;;;;;;20417381;29;20273;-67
2021/11/04 08:42:24;;;;;;;0.20;0.10;;;11.60;99.90;;;;;;20419020;29;20302;-70
2021/11/04 08:52:30;;;;;;;0.20;0.20;;;11.90;99.90;;;;;;20416551;29;20619;-68
2021/11/04 09:02:34;;;;;;;0.20;0.10;;;12.00;99.90;;;;;;20401124;29;20241;-69
2021/11/04 09:12:40;;;;;;;0.20;0.10;;;12.70;99.90;;;;;;20462097;28;20284;-69
2021/11/04 09:22:46;;;;;;;0.20;0.10;;;13.20;99.90;;;;;;20488537;28;20229;-70
2021/11/04 09:32:52;;;;;;;0.20;0.10;;;12.90;99.90;;;;;;20480098;28;20686;-70
2021/11/04 09:42:56;;;;;;;0.70;0.70;;;13.50;99.90;;;;;;20415255;29;20221;-69
2021/11/04 09:53:02;;;;;;;0.20;0.10;;;14.10;99.90;;;;;;20400638;29;20273;-70
2021/11/04 10:03:11;;;;;;;0.20;0.10;;;14.30;99.90;;;;;;20345189;29;20242;-69
2021/11/04 10:13:16;;;;;;;0.20;0.10;;;14.80;99.90;;;;;;20381946;29;20700;-70
2021/11/04 10:23:21;;;;;;;0.20;0.10;;;15.40;99.90;;;;;;20410102;29;20671;-70
2021/11/04 10:33:28;;;;;;;0.20;0.10;;;15.90;99.90;;;;;;20400531;29;20576;-70
2021/11/04 10:43:33;;;;;;;0.20;0.10;;;16.10;99.90;;;;;;20423385;29;20265;-69
2021/11/04 10:53:39;;;;;;;0.20;0.10;;;16.20;99.90;;;;;;20407181;29;20295;-69
2021/11/04 11:03:54;;;;;;;0.20;0.00;;;16.00;99.90;;;;;;20424718;29;20626;-70
2021/11/04 11:14:02;;;;;;;0.20;0.10;;;15.90;99.90;;;;;;20424778;29;20675;-70
2021/11/04 11:24:06;;;;;;;0.20;0.20;;;16.10;99.90;;;;;;20423477;29;20225;-67
2021/11/04 11:34:26;;;;;;;0.20;0.10;;;16.50;99.90;;;;;;20421061;29;20217;-69
2021/11/04 11:44:54;;;;;;;0.20;0.10;;;17.80;99.90;;;;;;20419001;29;20580;-69
2021/11/04 11:55:11;;;;;;;0.20;0.03;;;17.40;99.90;;;;;;20419022;29;20210;-69
2021/11/04 12:05:42;;;;;;;0.20;0.00;;;17.90;99.90;;;;;;20419961;29;20598;-69
2021/11/04 12:16:09;;;;;;;0.20;0.00;;;17.80;99.90;;;;;;20373719;29;20209;-68
2021/11/04 12:26:15;;;;;;;0.73;0.73;;;18.20;99.90;;;;;;20417432;29;20565;-69
2021/11/04 12:36:37;;;;;;;0.20;0.10;;;17.60;99.90;;;;;;20399990;29;20204;-68
2021/11/04 12:46:47;;;;;;;0.20;0.00;;;17.60;99.90;;;;;;20416045;29;20209;-70
2021/11/04 12:56:57;;;;;;;0.20;0.00;;;18.40;99.90;;;;;;20415712;29;20305;-67
2021/11/04 13:07:02;;;;;;;0.20;0.10;;;18.20;99.90;;;;;;20415941;29;20259;-67
2021/11/04 13:17:13;;;;;;;0.20;0.10;;;17.50;99.90;;;;;;20414361;29;20770;-69
2021/11/04 13:27:17;;;;;;;0.20;0.00;;;19.40;99.90;;;;;;20412639;29;20288;-70
2021/11/04 13:37:22;;;;;;;0.20;0.10;;;20.60;99.90;;;;;;20406816;29;20674;-69
2021/11/04 13:47:36;;;;;;;0.20;0.10;;;22.00;99.90;;;;;;20394091;29;20388;-68
2021/11/04 13:57:51;;;;;;;0.20;0.00;;;21.30;99.90;;;;;;20412065;29;20264;-68
2021/11/04 14:07:55;;;;;;;0.20;0.00;;;22.50;99.90;;;;;;20419103;29;20217;-69
2021/11/04 14:18:00;;;;;;;0.20;0.03;;;22.40;99.90;;;;;;20427219;29;20239;-67
2021/11/04 14:28:05;;;;;;;0.20;0.10;;;20.10;99.90;;;;;;20410725;29;20201;-69
2021/11/04 14:38:11;;;;;;;0.20;0.00;;;19.70;99.90;;;;;;20426977;29;20221;-69
2021/11/04 14:48:14;;;;;;;0.20;0.07;;;17.80;99.90;;;;;;20426209;29;20325;-69
2021/11/04 14:58:20;;;;;;;0.20;0.10;;;16.90;99.90;;;;;;20406817;29;20221;-67
2021/11/04 15:08:24;;;;;;;0.20;0.10;;;16.60;99.90;;;;;;20434134;29;20260;-68
2021/11/04 15:18:29;;;;;;;0.20;0.00;;;16.40;99.90;;;;;;20442233;29;21046;-69
2021/11/04 15:28:33;;;;;;;0.20;0.10;;;16.20;99.90;;;;;;20419769;29;20201;-67
2021/11/04 15:38:38;;;;;;;0.20;0.00;;;16.20;99.90;;;;;;20421317;29;20687;-69
2021/11/04 15:48:44;;;;;;;0.20;0.00;;;16.00;99.90;;;;;;20418670;29;20209;-69
2021/11/04 15:58:49;;;;;;;0.20;0.00;;;16.00;99.90;;;;;;20419358;29;20319;-68
2021/11/04 16:08:52;;;;;;;0.20;0.00;;;16.00;99.90;;;;;;20419971;29;20739;-67
2021/11/04 16:18:58;;;;;;;0.20;0.10;;;15.90;99.90;;;;;;20420714;29;20263;-68
2021/11/04 16:29:20;;;;;;;0.20;0.10;;;15.80;99.90;;;;;;20415975;29;20357;-69
2021/11/04 16:39:25;;;;;;;0.20;0.10;;;15.50;99.90;;;;;;20412953;29;20235;-69
2021/11/04 16:49:28;;;;;;;0.20;0.00;;;15.30;99.90;;;;;;20412843;29;20205;-69
2021/11/04 16:59:39;;;;;;;0.20;0.10;;;15.00;99.90;;;;;;20412953;29;20248;-70
2021/11/04 17:09:45;;;;;;;0.20;0.10;;;14.50;99.90;;;;;;20416239;29;20557;-70
2021/11/04 17:19:51;;;;;;;0.20;0.00;;;14.40;99.90;;;;;;20414648;29;20233;-70
2021/11/04 17:29:54;;;;;;;0.20;0.10;;;13.90;99.90;;;;;;20413903;29;20201;-70
2021/11/04 17:40:01;;;;;;;0.20;0.10;;;13.60;99.90;;;;;;20396330;29;20244;-67
2021/11/04 17:50:08;;;;;;;0.20;0.10;;;13.40;99.90;;;;;;20394405;29;20204;-69
2021/11/04 18:00:16;;;;;;;0.20;0.10;;;13.10;99.90;;;;;;20412226;29;20241;-71
2021/11/04 18:10:20;;;;;;;0.20;0.10;;;13.10;99.90;;;;;;20414815;29;20266;-70
2021/11/04 18:20:25;;;;;;;0.20;0.10;;;13.00;99.90;;;;;;20414005;29;20235;-68
2021/11/04 18:30:29;;;;;;;0.20;0.10;;;12.80;99.90;;;;;;20413714;29;20206;-69
2021/11/04 18:40:36;;;;;;;0.20;0.10;;;12.80;99.90;;;;;;20412388;29;20536;-69
2021/11/04 18:50:40;;;;;;;0.20;0.10;;;12.70;99.90;;;;;;20414578;28;20241;-68
2021/11/04 19:00:46;;;;;;;0.40;0.40;;;12.70;99.90;;;;;;20408912;29;20276;-69
2021/11/04 19:10:50;;;;;;;0.20;0.10;;;12.90;99.90;;;;;;20406437;29;20213;-68
2021/11/04 19:20:55;;;;;;;0.20;0.10;;;13.10;99.90;;;;;;20404138;29;20268;-68
2021/11/04 19:30:59;;;;;;;0.20;0.10;;;13.10;99.90;;;;;;20421565;29;20209;-69
2021/11/04 19:41:04;;;;;;;0.20;0.10;;;12.90;99.90;;;;;;20419341;29;20225;-70
2021/11/04 19:51:08;;;;;;;0.20;0.10;;;12.50;99.90;;;;;;20420112;29;20229;-70
2021/11/04 20:01:15;;;;;;;0.20;0.10;;;12.00;99.90;;;;;;20401953;29;20283;-69
2021/11/04 20:11:18;;;;;;;0.20;0.00;;;11.80;99.90;;;;;;20419424;29;20197;-69
2021/11/04 20:21:24;;;;;;;0.20;0.20;;;11.80;99.90;;;;;;20418349;29;20734;-69
2021/11/04 20:31:29;;;;;;;0.20;0.10;;;11.80;99.90;;;;;;20417706;29;20690;-70
2021/11/04 20:41:34;;;;;;;0.20;0.10;;;11.80;99.90;;;;;;20418266;29;20221;-71
2021/11/04 20:51:38;;;;;;;0.20;0.10;;;12.10;99.90;;;;;;20416871;29;20293;-70
2021/11/04 21:01:43;;;;;;;0.20;0.10;;;12.10;99.90;;;;;;20399335;29;20237;-69
2021/11/04 21:11:47;;;;;;;0.20;0.10;;;12.20;99.90;;;;;;20416036;29;20632;-70
2021/11/04 21:21:55;;;;;;;0.20;0.10;;;12.30;99.90;;;;;;20415075;29;20218;-69
2021/11/04 21:31:59;;;;;;;0.20;0.10;;;12.60;99.90;;;;;;20401038;29;20198;-68
2021/11/04 21:42:37;;;;;;;0.20;0.10;;;12.60;99.90;;;;;;20415816;29;20229;-70
2021/11/04 21:52:58;;;;;;;0.20;0.00;;;12.90;99.90;;;;;;20418042;29;20204;-71
2021/11/04 22:03:06;;;;;;;0.20;0.00;;;13.20;99.90;;;;;;20419547;29;20248;-71
2021/11/04 22:13:19;;;;;;;0.20;0.10;;;13.00;99.90;;;;;;20415457;29;20212;-70
2021/11/04 22:23:26;;;;;;;0.20;0.10;;;12.60;99.90;;;;;;20415318;29;20332;-69
2021/11/04 22:33:30;;;;;;;0.20;0.10;;;12.60;99.90;;;;;;20428580;29;20532;-70
2021/11/04 22:43:35;;;;;;;0.20;0.00;;;12.50;99.90;;;;;;20429844;29;20740;-71
2021/11/04 22:53:39;;;;;;;0.20;0.10;;;12.40;99.90;;;;;;20412312;29;20201;-70
2021/11/04 23:03:45;;;;;;;0.20;0.10;;;12.00;99.90;;;;;;20428593;29;20284;-69
2021/11/04 23:13:49;;;;;;;0.20;0.10;;;11.90;99.90;;;;;;20427739;29;20212;-69
2021/11/04 23:23:56;;;;;;;3.73;3.40;;;11.80;99.90;;;;;;20426966;29;20257;-69
2021/11/04 23:34:01;;;;;;;0.20;0.10;;;11.50;99.90;;;;;;20426756;29;20304;-70
2021/11/04 23:44:06;;;;;;;0.20;0.10;;;11.50;99.90;;;;;;20423443;29;20251;-69
2021/11/04 23:54:13;;;;;;;0.20;0.10;;;11.30;99.90;;;;;;20407392;29;20202;-69
